createdAt,value
2022-12-25T00:01:21.259Z,20.66
2022-12-25T00:03:48.317Z,20.68
2022-12-25T00:06:16.172Z,20.72
2022-12-25T00:08:43.272Z,20.73
2022-12-25T00:11:16.341Z,20.75
2022-12-25T00:13:44.055Z,20.76
2022-12-25T00:16:16.707Z,20.76
2022-12-25T00:18:43.652Z,20.79
2022-12-25T00:21:11.521Z,20.75
2022-12-25T00:23:38.341Z,20.75
2022-12-25T00:26:10.819Z,20.82
2022-12-25T00:28:37.472Z,20.79
2022-12-25T00:31:23.320Z,20.78
2022-12-25T00:33:51.903Z,20.78
2022-12-25T00:36:21.370Z,20.76
2022-12-25T00:38:48.244Z,20.76
2022-12-25T00:41:17.787Z,20.76
2022-12-25T00:43:44.451Z,20.80
2022-12-25T00:46:12.903Z,20.79
2022-12-25T00:48:40.140Z,20.80
2022-12-25T00:51:10.701Z,20.79
2022-12-25T00:53:37.312Z,20.80
2022-12-25T00:56:06.188Z,20.77
2022-12-25T00:58:34.060Z,20.77
2022-12-25T01:01:00.827Z,20.76
2022-12-25T01:03:28.333Z,20.75
2022-12-25T01:06:01.088Z,20.73
2022-12-25T01:08:30.496Z,20.73
2022-12-25T01:11:05.779Z,20.72
2022-12-25T01:13:34.951Z,20.70
2022-12-25T01:16:09.558Z,20.73
2022-12-25T01:18:36.861Z,20.69
2022-12-25T01:21:11.493Z,20.70
2022-12-25T01:23:38.346Z,20.68
2022-12-25T01:26:06.106Z,20.68
2022-12-25T01:28:32.765Z,20.68
2022-12-25T01:30:59.428Z,20.70
2022-12-25T01:33:26.251Z,20.70
2022-12-25T01:35:52.804Z,20.71
2022-12-25T01:38:19.718Z,20.71
2022-12-25T01:40:46.309Z,20.71
2022-12-25T01:43:27.850Z,20.73
2022-12-25T01:45:54.543Z,20.73
2022-12-25T01:48:25.472Z,20.72
2022-12-25T01:51:02.140Z,20.73
2022-12-25T01:53:29.401Z,20.69
2022-12-25T01:56:01.221Z,20.71
2022-12-25T01:58:29.015Z,20.69
2022-12-25T02:00:55.738Z,20.68
2022-12-25T02:03:22.864Z,20.69
2022-12-25T02:05:51.316Z,20.68
2022-12-25T02:08:20.522Z,20.68
2022-12-25T02:10:47.112Z,20.70
2022-12-25T02:13:17.721Z,20.69
2022-12-25T02:16:02.884Z,20.68
2022-12-25T02:18:49.267Z,20.70
2022-12-25T02:21:57.174Z,20.70
2022-12-25T02:24:26.675Z,20.71
2022-12-25T02:27:05.236Z,20.72
2022-12-25T02:29:46.168Z,20.60
2022-12-25T02:32:24.595Z,20.61
2022-12-25T02:34:53.290Z,20.57
2022-12-25T02:37:40.326Z,20.55
2022-12-25T02:40:16.949Z,20.53
2022-12-25T02:43:28.740Z,20.54
2022-12-25T02:46:17.902Z,20.48
2022-12-25T02:49:16.731Z,20.51
2022-12-25T02:52:13.132Z,20.49
2022-12-25T02:55:03.604Z,20.48
2022-12-25T02:57:55.544Z,20.48
2022-12-25T03:00:41.427Z,20.49
2022-12-25T03:03:29.374Z,20.49
2022-12-25T03:06:18.640Z,20.45
2022-12-25T03:08:48.669Z,20.46
2022-12-25T03:11:33.506Z,20.46
2022-12-25T03:14:26.913Z,20.46
2022-12-25T03:16:56.525Z,20.47
2022-12-25T03:19:44.678Z,20.48
2022-12-25T03:22:35.511Z,20.45
2022-12-25T03:25:21.152Z,20.42
2022-12-25T03:27:51.570Z,20.44
2022-12-25T03:30:38.977Z,20.45
2022-12-25T03:33:44.742Z,20.47
2022-12-25T03:37:19.434Z,20.41
2022-12-25T03:40:31.721Z,20.38
2022-12-25T03:43:46.226Z,20.36
2022-12-25T03:46:34.557Z,20.34
2022-12-25T03:49:50.069Z,20.32
2022-12-25T03:52:38.134Z,20.29
2022-12-25T03:55:28.402Z,20.26
2022-12-25T03:58:13.826Z,20.25
2022-12-25T04:00:59.095Z,20.26
2022-12-25T04:03:44.457Z,20.25
2022-12-25T04:06:29.760Z,20.24
2022-12-25T04:09:14.957Z,20.24
2022-12-25T04:12:02.906Z,20.28
2022-12-25T04:14:48.794Z,20.28
2022-12-25T04:17:33.827Z,20.28
2022-12-25T04:20:19.129Z,20.32
2022-12-25T04:23:06.333Z,20.38
2022-12-25T04:25:51.557Z,20.32
2022-12-25T04:28:36.403Z,20.33
2022-12-25T04:31:21.715Z,20.33
2022-12-25T04:34:06.872Z,20.37
2022-12-25T04:36:33.450Z,20.30
2022-12-25T04:39:00.006Z,20.32
2022-12-25T04:41:26.655Z,20.30
2022-12-25T04:43:53.308Z,20.28
2022-12-25T04:46:19.968Z,20.34
2022-12-25T04:48:46.550Z,20.30
2022-12-25T04:51:18.873Z,20.33
2022-12-25T04:53:46.426Z,20.33
2022-12-25T04:56:13.998Z,20.32
2022-12-25T04:58:41.234Z,20.26
2022-12-25T05:01:08.082Z,20.29
2022-12-25T05:03:35.431Z,20.31
2022-12-25T05:06:02.696Z,20.30
2022-12-25T05:08:30.571Z,20.32
2022-12-25T05:10:57.368Z,20.31
2022-12-25T05:13:24.304Z,20.28
2022-12-25T05:15:51.074Z,20.26
2022-12-25T05:18:17.741Z,20.26
2022-12-25T05:20:51.912Z,20.26
2022-12-25T05:23:18.503Z,20.19
2022-12-25T05:25:45.079Z,20.25
2022-12-25T05:28:11.659Z,20.20
2022-12-25T05:30:38.294Z,20.22
2022-12-25T05:33:05.025Z,20.20
2022-12-25T05:35:32.015Z,20.25
2022-12-25T05:37:58.722Z,20.21
2022-12-25T05:40:25.298Z,20.24
2022-12-25T05:42:51.894Z,20.27
2022-12-25T05:45:18.495Z,20.29
2022-12-25T05:47:45.077Z,20.31
2022-12-25T05:50:11.645Z,20.31
2022-12-25T05:52:38.217Z,20.32
2022-12-25T05:55:05.232Z,20.29
2022-12-25T05:57:32.079Z,20.30
2022-12-25T05:59:58.856Z,20.33
2022-12-25T06:02:25.849Z,20.36
2022-12-25T06:04:52.517Z,20.37
2022-12-25T06:07:19.072Z,20.40
2022-12-25T06:09:45.676Z,20.43
2022-12-25T06:12:12.301Z,20.40
2022-12-25T06:14:39.006Z,20.47
2022-12-25T06:17:05.682Z,20.45
2022-12-25T06:19:32.329Z,20.49
2022-12-25T06:21:58.945Z,20.48
2022-12-25T06:24:25.596Z,20.49
2022-12-25T06:26:52.253Z,20.48
2022-12-25T06:29:18.841Z,20.45
2022-12-25T06:31:45.439Z,20.49
2022-12-25T06:34:12.572Z,20.47
2022-12-25T06:36:39.252Z,20.47
2022-12-25T06:39:05.795Z,20.44
2022-12-25T06:41:32.385Z,20.48
2022-12-25T06:44:01.113Z,20.48
2022-12-25T06:46:29.611Z,20.44
2022-12-25T06:48:59.199Z,20.44
2022-12-25T06:51:28.776Z,20.42
2022-12-25T06:53:57.378Z,20.59
2022-12-25T06:56:27.607Z,20.56
2022-12-25T06:58:57.391Z,20.60
2022-12-25T07:01:42.025Z,20.59
2022-12-25T07:04:16.833Z,20.52
2022-12-25T07:06:43.415Z,20.48
2022-12-25T07:09:10.017Z,20.53
2022-12-25T07:11:36.728Z,20.53
2022-12-25T07:14:03.354Z,20.52
2022-12-25T07:16:30.161Z,20.49
2022-12-25T07:18:58.836Z,20.50
2022-12-25T07:21:25.404Z,20.47
2022-12-25T07:23:51.980Z,20.46
2022-12-25T07:26:18.905Z,20.49
2022-12-25T07:28:45.542Z,20.48
2022-12-25T07:31:14.721Z,20.45
2022-12-25T07:33:41.901Z,20.46
2022-12-25T07:36:12.571Z,20.47
2022-12-25T07:38:43.095Z,20.47
2022-12-25T07:41:11.654Z,20.48
2022-12-25T07:43:38.631Z,20.48
2022-12-25T07:46:05.681Z,20.47
2022-12-25T07:48:32.377Z,20.44
2022-12-25T07:50:59.658Z,20.45
2022-12-25T07:53:27.343Z,20.49
2022-12-25T07:56:14.390Z,20.55
2022-12-25T07:58:41.572Z,20.51
2022-12-25T08:01:11.574Z,20.43
2022-12-25T08:03:38.621Z,20.37
2022-12-25T08:06:07.793Z,20.43
2022-12-25T08:08:35.230Z,20.48
2022-12-25T08:11:01.827Z,20.45
2022-12-25T08:13:32.164Z,20.50
2022-12-25T08:16:04.625Z,20.40
2022-12-25T08:18:32.242Z,20.46
2022-12-25T08:21:07.558Z,20.55
2022-12-25T08:23:39.215Z,20.53
2022-12-25T08:26:08.449Z,20.52
2022-12-25T08:28:35.793Z,20.57
2022-12-25T08:31:19.392Z,20.50
2022-12-25T08:33:47.060Z,20.51
2022-12-25T08:36:13.737Z,20.51
2022-12-25T08:38:41.294Z,20.53
2022-12-25T08:41:08.256Z,20.60
2022-12-25T08:43:34.911Z,20.59
2022-12-25T08:46:01.840Z,20.68
2022-12-25T08:48:28.985Z,20.68
2022-12-25T08:50:56.061Z,20.68
2022-12-25T08:53:23.303Z,20.74
2022-12-25T08:55:56.288Z,20.73
2022-12-25T08:58:22.837Z,20.68
2022-12-25T09:00:49.376Z,20.66
2022-12-25T09:03:15.984Z,20.58
2022-12-25T09:05:42.611Z,20.58
2022-12-25T09:08:09.278Z,20.62
2022-12-25T09:10:37.462Z,20.68
2022-12-25T09:13:05.018Z,20.66
2022-12-25T09:15:31.966Z,20.75
2022-12-25T09:17:58.535Z,20.75
2022-12-25T09:20:25.180Z,20.90
2022-12-25T09:22:51.833Z,21.10
2022-12-25T09:25:18.443Z,21.22
2022-12-25T09:27:45.058Z,21.13
2022-12-25T09:30:11.825Z,20.98
2022-12-25T09:32:40.323Z,20.87
2022-12-25T09:35:10.456Z,20.89
2022-12-25T09:37:37.034Z,20.84
2022-12-25T09:40:04.409Z,20.87
2022-12-25T09:42:34.385Z,20.79
2022-12-25T09:45:10.617Z,20.78
2022-12-25T09:47:40.049Z,20.79
2022-12-25T09:50:06.833Z,20.78
2022-12-25T09:52:33.334Z,20.81
2022-12-25T09:55:05.906Z,20.75
2022-12-25T09:57:32.881Z,20.69
2022-12-25T09:59:59.809Z,20.74
2022-12-25T10:02:42.899Z,20.82
2022-12-25T10:05:37.111Z,21.27
2022-12-25T10:08:21.395Z,21.46
2022-12-25T10:11:12.361Z,21.40
2022-12-25T10:13:57.188Z,21.19
2022-12-25T10:16:45.634Z,21.10
2022-12-25T10:19:50.785Z,21.02
2022-12-25T10:22:27.761Z,20.98
2022-12-25T10:24:57.775Z,21.02
2022-12-25T10:27:35.252Z,21.06
2022-12-25T10:30:05.832Z,21.12
2022-12-25T10:32:33.774Z,21.21
2022-12-25T10:35:01.132Z,21.20
2022-12-25T10:37:27.706Z,21.25
2022-12-25T10:39:54.253Z,21.29
2022-12-25T10:42:38.165Z,21.30
2022-12-25T10:45:08.123Z,21.25
2022-12-25T10:47:42.036Z,21.19
2022-12-25T10:50:20.238Z,21.21
2022-12-25T10:52:55.989Z,21.19
2022-12-25T10:55:28.428Z,21.12
2022-12-25T10:57:57.768Z,21.12
2022-12-25T11:00:33.591Z,21.11
2022-12-25T11:03:00.888Z,21.07
2022-12-25T11:05:33.272Z,21.07
2022-12-25T11:08:01.708Z,21.06
2022-12-25T11:10:36.661Z,21.01
2022-12-25T11:13:07.590Z,21.00
2022-12-25T11:15:34.219Z,21.00
2022-12-25T11:18:00.984Z,21.03
2022-12-25T11:20:27.773Z,21.08
2022-12-25T11:22:54.470Z,21.12
2022-12-25T11:25:27.562Z,21.07
2022-12-25T11:27:59.833Z,21.01
2022-12-25T11:30:29.051Z,20.90
2022-12-25T11:33:00.958Z,20.84
2022-12-25T11:35:32.325Z,20.84
2022-12-25T11:37:58.918Z,20.86
2022-12-25T11:40:46.247Z,20.89
2022-12-25T11:43:31.737Z,20.84
2022-12-25T11:46:07.531Z,20.76
2022-12-25T11:48:40.245Z,20.73
2022-12-25T11:51:09.633Z,20.73
2022-12-25T11:53:42.992Z,20.73
2022-12-25T11:56:16.241Z,20.76
2022-12-25T11:58:46.809Z,20.68
2022-12-25T12:01:33.381Z,20.75
2022-12-25T12:04:02.928Z,20.70
2022-12-25T12:06:47.748Z,20.73
2022-12-25T12:09:36.113Z,20.80
2022-12-25T12:12:34.196Z,20.77
2022-12-25T12:15:12.319Z,20.77
2022-12-25T12:17:38.875Z,20.74
2022-12-25T12:20:35.586Z,20.80
2022-12-25T12:23:10.553Z,20.81
2022-12-25T12:25:43.093Z,20.86
2022-12-25T12:28:20.146Z,20.86
2022-12-25T12:30:58.267Z,20.86
2022-12-25T12:33:30.537Z,20.87
2022-12-25T12:35:57.627Z,20.88
2022-12-25T12:38:24.874Z,20.85
2022-12-25T12:40:58.788Z,20.82
2022-12-25T12:43:36.604Z,20.75
2022-12-25T12:46:30.885Z,20.76
2022-12-25T12:49:27.817Z,20.72
2022-12-25T12:52:33.137Z,20.61
2022-12-25T12:55:15.120Z,20.56
2022-12-25T12:57:42.786Z,20.55
2022-12-25T13:00:36.067Z,20.60
2022-12-25T13:03:28.297Z,20.59
2022-12-25T13:06:00.910Z,20.60
2022-12-25T13:08:45.362Z,20.69
2022-12-25T13:11:28.094Z,20.69
2022-12-25T13:13:57.555Z,20.63
2022-12-25T13:16:33.576Z,20.60
2022-12-25T13:19:05.033Z,20.59
2022-12-25T13:21:32.616Z,20.59
2022-12-25T13:24:18.450Z,20.68
2022-12-25T13:26:45.063Z,20.63
2022-12-25T13:29:30.959Z,20.59
2022-12-25T13:32:02.515Z,20.51
2022-12-25T13:34:36.278Z,20.42
2022-12-25T13:37:17.885Z,20.17
2022-12-25T13:40:01.786Z,20.49
2022-12-25T13:42:37.325Z,20.56
2022-12-25T13:45:07.899Z,20.55
2022-12-25T13:47:37.290Z,20.50
2022-12-25T13:50:34.313Z,20.48
2022-12-25T13:53:12.576Z,20.35
2022-12-25T13:55:40.263Z,20.50
2022-12-25T13:58:15.148Z,20.43
2022-12-25T14:00:52.752Z,20.54
2022-12-25T14:03:23.786Z,20.54
2022-12-25T14:06:06.086Z,20.57
2022-12-25T14:08:35.078Z,20.57
2022-12-25T14:11:04.585Z,20.58
2022-12-25T14:13:35.057Z,20.59
2022-12-25T14:16:02.143Z,20.58
2022-12-25T14:18:29.967Z,20.65
2022-12-25T14:20:56.492Z,20.66
2022-12-25T14:23:23.213Z,20.68
2022-12-25T14:25:49.916Z,20.64
2022-12-25T14:28:20.796Z,20.72
2022-12-25T14:30:47.922Z,20.72
2022-12-25T14:33:38.340Z,20.71
2022-12-25T14:36:06.970Z,20.66
2022-12-25T14:38:35.177Z,20.63
2022-12-25T14:41:07.585Z,20.61
2022-12-25T14:43:36.387Z,20.55
2022-12-25T14:46:06.581Z,20.48
2022-12-25T14:48:33.794Z,20.50
2022-12-25T14:51:03.271Z,20.46
2022-12-25T14:53:41.856Z,20.49
2022-12-25T14:56:10.290Z,20.47
2022-12-25T14:58:43.463Z,20.48
2022-12-25T15:01:31.757Z,20.52
2022-12-25T15:04:10.176Z,20.58
2022-12-25T15:06:40.103Z,20.58
2022-12-25T15:09:15.360Z,20.53
2022-12-25T15:11:41.962Z,20.44
2022-12-25T15:14:08.517Z,20.39
2022-12-25T15:16:41.355Z,20.35
2022-12-25T15:19:10.428Z,20.31
2022-12-25T15:21:37.511Z,20.29
2022-12-25T15:24:04.343Z,20.31
2022-12-25T15:26:32.244Z,20.30
2022-12-25T15:28:59.271Z,20.33
2022-12-25T15:31:31.931Z,20.31
2022-12-25T15:34:01.472Z,20.29
2022-12-25T15:36:29.025Z,20.27
2022-12-25T15:38:56.029Z,20.26
2022-12-25T15:41:46.075Z,20.29
2022-12-25T15:44:13.443Z,20.26
2022-12-25T15:46:40.092Z,20.26
2022-12-25T15:49:06.925Z,20.28
2022-12-25T15:51:33.774Z,20.28
2022-12-25T15:54:00.331Z,20.31
2022-12-25T15:56:27.853Z,20.34
2022-12-25T15:58:54.418Z,20.34
2022-12-25T16:01:21.525Z,20.35
2022-12-25T16:03:48.350Z,20.37
2022-12-25T16:06:17.216Z,20.31
2022-12-25T16:08:44.615Z,20.33
2022-12-25T16:11:11.813Z,20.25
2022-12-25T16:13:38.679Z,20.27
2022-12-25T16:16:06.832Z,20.32
2022-12-25T16:18:33.580Z,20.29
2022-12-25T16:21:00.315Z,20.28
2022-12-25T16:23:26.895Z,20.25
2022-12-25T16:25:53.477Z,20.24
2022-12-25T16:28:20.065Z,20.24
2022-12-25T16:30:46.786Z,20.24
2022-12-25T16:33:13.386Z,20.25
2022-12-25T16:35:40.000Z,20.22
2022-12-25T16:38:06.878Z,20.29
2022-12-25T16:40:33.441Z,20.32
2022-12-25T16:43:00.052Z,20.29
2022-12-25T16:45:26.760Z,20.24
2022-12-25T16:47:53.296Z,20.26
2022-12-25T16:50:19.852Z,20.22
2022-12-25T16:52:46.437Z,20.24
2022-12-25T16:55:13.118Z,20.28
2022-12-25T16:57:39.687Z,20.30
2022-12-25T17:00:06.859Z,20.28
2022-12-25T17:02:33.543Z,20.30
2022-12-25T17:05:01.001Z,20.32
2022-12-25T17:07:27.606Z,20.36
2022-12-25T17:09:54.171Z,20.36
2022-12-25T17:12:20.740Z,20.38
2022-12-25T17:14:47.343Z,20.38
2022-12-25T17:17:13.923Z,20.42
2022-12-25T17:19:41.584Z,20.42
2022-12-25T17:22:08.293Z,20.45
2022-12-25T17:24:37.336Z,20.46
2022-12-25T17:27:04.326Z,20.44
2022-12-25T17:29:31.946Z,20.46
2022-12-25T17:31:58.581Z,20.44
2022-12-25T17:34:25.266Z,20.44
2022-12-25T17:36:54.167Z,20.46
2022-12-25T17:39:20.730Z,20.43
2022-12-25T17:41:50.410Z,20.44
2022-12-25T17:44:18.140Z,20.44
2022-12-25T17:46:44.932Z,20.42
2022-12-25T17:49:15.585Z,20.43
2022-12-25T17:51:42.275Z,20.42
2022-12-25T17:54:09.462Z,20.40
2022-12-25T17:56:36.793Z,20.44
2022-12-25T17:59:10.443Z,20.43
2022-12-25T18:01:39.202Z,20.38
2022-12-25T18:04:06.434Z,20.32
2022-12-25T18:06:35.945Z,20.40
2022-12-25T18:09:05.193Z,20.53
2022-12-25T18:11:33.115Z,20.62
2022-12-25T18:14:04.588Z,20.61
2022-12-25T18:16:34.873Z,20.61
2022-12-25T18:19:02.417Z,20.57
2022-12-25T18:21:29.597Z,20.61
2022-12-25T18:23:56.638Z,20.59
2022-12-25T18:26:23.763Z,20.55
2022-12-25T18:28:50.610Z,20.51
2022-12-25T18:31:22.825Z,20.56
2022-12-25T18:33:50.201Z,20.53
2022-12-25T18:36:20.222Z,20.55
2022-12-25T18:38:48.278Z,20.53
2022-12-25T18:41:15.537Z,20.54
2022-12-25T18:43:53.769Z,20.46
2022-12-25T18:46:24.029Z,20.48
2022-12-25T18:48:51.483Z,20.47
2022-12-25T18:51:18.167Z,20.53
2022-12-25T18:53:45.013Z,20.50
2022-12-25T18:56:15.630Z,20.51
2022-12-25T18:58:43.093Z,20.49
2022-12-25T19:01:11.938Z,20.51
2022-12-25T19:03:38.866Z,20.51
2022-12-25T19:06:05.731Z,20.48
2022-12-25T19:08:32.297Z,20.46
2022-12-25T19:10:58.913Z,20.49
2022-12-25T19:13:25.443Z,20.46
2022-12-25T19:15:51.986Z,20.48
2022-12-25T19:18:18.526Z,20.45
2022-12-25T19:20:45.111Z,20.42
2022-12-25T19:23:11.674Z,20.42
2022-12-25T19:25:39.997Z,20.46
2022-12-25T19:28:06.558Z,20.44
2022-12-25T19:30:33.113Z,20.43
2022-12-25T19:32:59.659Z,20.38
2022-12-25T19:35:26.266Z,20.43
2022-12-25T19:37:52.921Z,20.43
2022-12-25T19:40:19.682Z,20.38
2022-12-25T19:42:46.256Z,20.41
2022-12-25T19:45:12.804Z,20.43
2022-12-25T19:47:39.406Z,20.38
2022-12-25T19:50:06.599Z,20.42
2022-12-25T19:52:33.178Z,20.44
2022-12-25T19:54:59.750Z,20.43
2022-12-25T19:57:26.301Z,20.42
2022-12-25T19:59:52.863Z,20.44
2022-12-25T20:02:19.653Z,20.44
2022-12-25T20:04:46.309Z,20.46
2022-12-25T20:07:12.907Z,20.39
2022-12-25T20:09:39.499Z,20.33
2022-12-25T20:12:06.206Z,20.39
2022-12-25T20:14:32.782Z,20.45
2022-12-25T20:16:59.429Z,20.48
2022-12-25T20:19:26.024Z,20.45
2022-12-25T20:21:54.117Z,20.46
2022-12-25T20:24:22.029Z,20.48
2022-12-25T20:26:50.524Z,20.42
2022-12-25T20:29:20.370Z,20.43
2022-12-25T20:31:47.029Z,20.42
2022-12-25T20:34:13.747Z,20.40
2022-12-25T20:36:40.396Z,20.36
2022-12-25T20:39:09.911Z,20.40
2022-12-25T20:41:37.846Z,20.38
2022-12-25T20:44:06.430Z,20.40
2022-12-25T20:46:33.076Z,20.37
2022-12-25T20:49:01.962Z,20.42
2022-12-25T20:51:28.608Z,20.44
2022-12-25T20:53:55.789Z,20.43
2022-12-25T20:56:24.850Z,20.47
2022-12-25T20:58:59.638Z,20.47
2022-12-25T21:01:27.494Z,20.44
2022-12-25T21:03:54.908Z,20.44
2022-12-25T21:06:22.164Z,20.47
2022-12-25T21:08:49.019Z,20.45
2022-12-25T21:11:16.790Z,20.49
2022-12-25T21:13:45.372Z,20.47
2022-12-25T21:16:15.065Z,20.51
2022-12-25T21:18:41.857Z,20.45
2022-12-25T21:21:09.417Z,20.48
2022-12-25T21:23:38.068Z,20.49
2022-12-25T21:26:19.009Z,20.50
2022-12-25T21:28:47.271Z,20.47
2022-12-25T21:31:14.000Z,20.47
2022-12-25T21:33:52.943Z,20.49
2022-12-25T21:36:29.054Z,20.50
2022-12-25T21:39:06.872Z,20.47
2022-12-25T21:41:34.940Z,20.47
2022-12-25T21:44:01.843Z,20.50
2022-12-25T21:46:28.621Z,20.52
2022-12-25T21:48:55.323Z,20.53
2022-12-25T21:51:46.554Z,20.54
2022-12-25T21:54:14.157Z,20.52
2022-12-25T21:56:44.853Z,20.51
2022-12-25T21:59:21.304Z,20.51
2022-12-25T22:01:49.274Z,20.50
2022-12-25T22:04:17.686Z,20.50
2022-12-25T22:07:03.399Z,20.54
2022-12-25T22:09:30.291Z,20.45
2022-12-25T22:12:15.542Z,20.46
2022-12-25T22:14:54.787Z,20.39
2022-12-25T22:17:40.920Z,20.37
2022-12-25T22:20:09.965Z,20.30
2022-12-25T22:22:36.601Z,20.32
2022-12-25T22:25:04.908Z,20.35
2022-12-25T22:27:37.663Z,20.39
2022-12-25T22:30:06.379Z,20.31
2022-12-25T22:32:34.652Z,20.36
2022-12-25T22:35:01.248Z,20.35
2022-12-25T22:37:27.827Z,20.37
2022-12-25T22:39:54.440Z,20.34
2022-12-25T22:42:21.030Z,20.43
2022-12-25T22:44:47.617Z,20.35
2022-12-25T22:47:14.203Z,20.35
2022-12-25T22:49:40.850Z,20.35
2022-12-25T22:52:10.305Z,20.35
2022-12-25T22:54:37.477Z,20.39
2022-12-25T22:57:04.614Z,20.40
2022-12-25T22:59:32.932Z,20.37
2022-12-25T23:02:00.461Z,20.37
2022-12-25T23:04:27.878Z,20.38
2022-12-25T23:06:54.567Z,20.42
2022-12-25T23:09:27.417Z,20.42
2022-12-25T23:11:58.289Z,20.40
2022-12-25T23:14:41.824Z,20.41
2022-12-25T23:17:31.492Z,20.40
2022-12-25T23:20:18.287Z,20.38
2022-12-25T23:23:04.445Z,20.42
2022-12-25T23:25:49.908Z,20.42
2022-12-25T23:28:36.633Z,20.39
2022-12-25T23:31:03.692Z,20.40
2022-12-25T23:33:30.631Z,20.35
2022-12-25T23:35:57.197Z,20.40
2022-12-25T23:38:23.747Z,20.43
2022-12-25T23:40:50.334Z,20.45
2022-12-25T23:43:16.899Z,20.42
2022-12-25T23:45:43.476Z,20.44
2022-12-25T23:48:10.059Z,20.36
2022-12-25T23:50:36.608Z,20.40
2022-12-25T23:53:03.196Z,20.39
2022-12-25T23:55:29.767Z,20.37
2022-12-25T23:57:56.365Z,20.39
